Salisbury Heights, Pennsylvania
Current Conditions -  °F | °C
As of 12:15 PM on Sunday 21 Dec 2014 (Local Time) from KMQS Reporting Station
Broken Clouds Broken Clouds  
Wind Chill: 29°   Ceiling: 2300
Heat Index: 36°   Visibility: 9mi
Dew Point: 27°   Wind: 9mph
Humidity: 70%   Direction: 320°NW
Pressure: 30.3"   Gusts: NA
Location:  40.0073°N, 75.9953°W
Report Text: KMQS 211715Z AUTO 32008KT 9SM BKN023 02/M03 A3030 RMK AO2
Loading
Personal Weather Stations






























Interactive Weather Map New forecast layout! Learn more

10-Day Weather Forecast

Advertisements
Track Severe Weather on mobile